createdAt,value
2017-07-28T00:02:25.402Z,20.69
2017-07-28T00:04:52.794Z,20.66
2017-07-28T00:07:20.194Z,20.62
2017-07-28T00:09:48.471Z,20.58
2017-07-28T00:12:16.107Z,20.61
2017-07-28T00:14:43.500Z,20.62
2017-07-28T00:17:11.106Z,20.60
2017-07-28T00:19:38.500Z,20.61
2017-07-28T00:22:05.898Z,20.53
2017-07-28T00:24:33.694Z,20.49
2017-07-28T00:27:01.092Z,20.47
2017-07-28T00:29:28.486Z,20.45
2017-07-28T00:31:55.890Z,20.55
2017-07-28T00:34:23.283Z,20.59
2017-07-28T00:36:50.686Z,20.43
2017-07-28T00:39:18.099Z,20.49
2017-07-28T00:41:45.473Z,20.65
2017-07-28T00:44:12.871Z,20.62
2017-07-28T00:46:40.270Z,20.55
2017-07-28T00:49:07.654Z,20.40
2017-07-28T00:51:35.075Z,20.43
2017-07-28T00:54:02.462Z,20.42
2017-07-28T00:56:29.865Z,20.45
2017-07-28T00:58:57.258Z,20.48
2017-07-28T01:01:24.934Z,20.38
2017-07-28T01:03:52.363Z,20.24
2017-07-28T01:06:19.750Z,20.21
2017-07-28T01:08:47.150Z,20.31
2017-07-28T01:11:14.549Z,20.19
2017-07-28T01:13:41.946Z,20.12
2017-07-28T01:16:09.575Z,20.05
2017-07-28T01:18:36.974Z,20.04
2017-07-28T01:21:04.374Z,20.05
2017-07-28T01:23:31.774Z,20.06
2017-07-28T01:25:59.160Z,20.01
2017-07-28T01:28:26.584Z,20.03
2017-07-28T01:30:53.950Z,19.96
2017-07-28T01:33:21.354Z,19.81
2017-07-28T01:35:48.747Z,19.88
2017-07-28T01:38:16.138Z,19.82
2017-07-28T01:40:43.530Z,19.83
2017-07-28T01:43:10.926Z,19.79
2017-07-28T01:45:38.546Z,19.68
2017-07-28T01:48:06.207Z,19.76
2017-07-28T01:50:33.598Z,19.63
2017-07-28T01:53:01.010Z,19.64
2017-07-28T01:55:28.394Z,19.73
2017-07-28T01:57:56.030Z,19.68
2017-07-28T02:00:23.423Z,19.62
2017-07-28T02:02:50.822Z,19.55
2017-07-28T02:05:18.218Z,19.52
2017-07-28T02:07:45.855Z,19.53
2017-07-28T02:10:13.250Z,19.62
2017-07-28T02:12:40.647Z,19.57
2017-07-28T02:15:08.042Z,19.65
2017-07-28T02:17:35.434Z,19.49
2017-07-28T02:20:02.839Z,19.46
2017-07-28T02:22:30.231Z,19.55
2017-07-28T02:24:57.626Z,19.52
2017-07-28T02:27:25.029Z,19.53
2017-07-28T02:29:52.435Z,19.46
2017-07-28T02:32:19.827Z,19.42
2017-07-28T02:34:47.226Z,19.38
2017-07-28T02:37:14.610Z,19.37
2017-07-28T02:39:42.007Z,19.32
2017-07-28T02:42:09.415Z,19.30
2017-07-28T02:44:37.090Z,19.34
2017-07-28T02:47:04.478Z,19.18
2017-07-28T02:49:31.875Z,19.20
2017-07-28T02:51:59.466Z,19.20
2017-07-28T02:54:26.866Z,19.20
2017-07-28T02:56:54.255Z,19.20
2017-07-28T02:59:21.648Z,19.27
2017-07-28T03:01:49.034Z,19.20
2017-07-28T03:04:16.440Z,19.08
2017-07-28T03:06:43.823Z,18.98
2017-07-28T03:12:01.887Z,18.95
2017-07-28T03:14:29.279Z,18.86
2017-07-28T03:16:56.676Z,18.91
2017-07-28T03:19:24.066Z,18.80
2017-07-28T03:21:51.779Z,18.69
2017-07-28T03:24:19.184Z,18.75
2017-07-28T03:26:46.795Z,18.76
2017-07-28T03:29:14.195Z,18.79
2017-07-28T03:31:41.595Z,18.76
2017-07-28T03:34:09.019Z,18.75
2017-07-28T03:36:36.412Z,18.59
2017-07-28T03:39:03.810Z,18.54
2017-07-28T03:41:31.219Z,18.48
2017-07-28T03:43:58.604Z,18.38
2017-07-28T03:46:25.998Z,18.35
2017-07-28T03:48:53.391Z,18.28
2017-07-28T03:51:20.886Z,18.22
2017-07-28T03:53:48.266Z,18.15
2017-07-28T03:56:15.667Z,18.22
2017-07-28T03:58:43.055Z,18.15
2017-07-28T04:01:10.465Z,17.91
2017-07-28T04:03:37.855Z,17.88
2017-07-28T04:06:05.257Z,17.91
2017-07-28T04:08:32.643Z,17.95
2017-07-28T04:11:00.043Z,18.04
2017-07-28T04:13:27.443Z,18.15
2017-07-28T04:15:54.839Z,18.17
2017-07-28T04:18:22.229Z,18.11
2017-07-28T04:20:49.628Z,18.25
2017-07-28T04:23:17.015Z,18.27
2017-07-28T04:25:44.443Z,18.26
2017-07-28T04:28:11.835Z,18.14
2017-07-28T04:30:39.231Z,18.07
2017-07-28T04:33:06.615Z,17.99
2017-07-28T04:35:34.250Z,17.99
2017-07-28T04:38:01.646Z,18.00
2017-07-28T04:40:29.052Z,18.03
2017-07-28T04:42:56.443Z,18.08
2017-07-28T04:45:23.843Z,18.13
2017-07-28T04:47:51.231Z,18.19
2017-07-28T04:50:18.650Z,18.21
2017-07-28T04:52:46.346Z,18.27
2017-07-28T04:55:13.747Z,18.37
2017-07-28T04:57:41.146Z,18.45
2017-07-28T05:00:08.590Z,18.34
2017-07-28T05:02:36.020Z,18.39
2017-07-28T05:05:03.430Z,18.42
2017-07-28T05:07:30.876Z,18.29
2017-07-28T05:09:58.387Z,18.35
2017-07-28T05:12:25.839Z,18.31
2017-07-28T05:14:53.332Z,18.37
2017-07-28T05:17:20.719Z,18.40
2017-07-28T05:19:48.119Z,18.49
2017-07-28T05:22:15.531Z,18.53
2017-07-28T05:24:42.930Z,18.59
2017-07-28T05:27:10.318Z,18.69
2017-07-28T05:29:37.723Z,18.70
2017-07-28T05:32:05.138Z,18.75
2017-07-28T05:34:32.528Z,18.76
2017-07-28T05:36:59.959Z,18.78
2017-07-28T05:39:27.407Z,18.63
2017-07-28T05:41:54.877Z,18.62
2017-07-28T05:44:22.307Z,18.60
2017-07-28T05:46:49.699Z,18.78
2017-07-28T05:49:17.120Z,18.81
2017-07-28T05:51:44.516Z,18.87
2017-07-28T05:54:11.916Z,19.00
2017-07-28T05:56:39.308Z,19.06
2017-07-28T05:59:06.690Z,19.05
2017-07-28T06:01:34.099Z,19.14
2017-07-28T06:04:01.499Z,19.18
2017-07-28T06:06:28.915Z,19.27
2017-07-28T06:08:56.315Z,19.12
2017-07-28T06:11:23.708Z,19.05
2017-07-28T06:13:51.110Z,19.03
2017-07-28T06:16:18.495Z,19.11
2017-07-28T06:18:45.894Z,18.94
2017-07-28T06:21:13.295Z,19.09
2017-07-28T06:23:40.699Z,19.15
2017-07-28T06:26:08.086Z,19.23
2017-07-28T06:28:35.491Z,19.13
2017-07-28T06:31:02.915Z,19.15
2017-07-28T06:33:30.335Z,19.18
2017-07-28T06:35:57.736Z,19.20
2017-07-28T06:38:25.134Z,19.39
2017-07-28T06:40:52.535Z,19.50
2017-07-28T06:43:19.939Z,19.62
2017-07-28T06:45:47.326Z,19.40
2017-07-28T06:48:14.722Z,19.41
2017-07-28T06:50:42.111Z,19.57
2017-07-28T06:53:09.531Z,19.59
2017-07-28T06:55:36.944Z,19.69
2017-07-28T06:58:04.336Z,19.87
2017-07-28T07:00:31.942Z,19.98
2017-07-28T07:02:59.343Z,20.10
2017-07-28T07:05:26.747Z,20.00
2017-07-28T07:07:54.359Z,20.03
2017-07-28T07:10:21.755Z,19.91
2017-07-28T07:12:49.158Z,19.97
2017-07-28T07:15:16.555Z,20.04
2017-07-28T07:17:43.959Z,20.02
2017-07-28T07:20:11.562Z,19.84
2017-07-28T07:22:38.955Z,19.91
2017-07-28T07:25:06.359Z,19.94
2017-07-28T07:27:33.761Z,20.02
2017-07-28T07:30:01.171Z,20.17
2017-07-28T07:32:28.576Z,20.15
2017-07-28T07:34:56.186Z,20.21
2017-07-28T07:37:23.794Z,20.15
2017-07-28T07:39:51.195Z,20.05
2017-07-28T07:42:18.586Z,20.23
2017-07-28T07:44:46.010Z,20.28
2017-07-28T07:47:13.393Z,20.44
2017-07-28T07:49:40.794Z,20.56
2017-07-28T07:52:08.179Z,20.66
2017-07-28T07:54:35.582Z,20.65
2017-07-28T07:57:02.978Z,20.78
2017-07-28T07:59:30.375Z,20.72
2017-07-28T08:02:02.175Z,20.66
2017-07-28T08:04:29.670Z,20.67
2017-07-28T08:06:57.059Z,20.77
2017-07-28T08:09:24.457Z,20.77
2017-07-28T08:11:51.842Z,20.88
2017-07-28T08:14:19.239Z,20.99
2017-07-28T08:16:46.629Z,20.96
2017-07-28T08:19:14.022Z,20.93
2017-07-28T08:21:41.407Z,20.99
2017-07-28T08:24:08.800Z,21.06
2017-07-28T08:26:36.192Z,21.07
2017-07-28T08:29:03.582Z,21.06
2017-07-28T08:31:30.974Z,21.02
2017-07-28T08:33:58.383Z,21.17
2017-07-28T08:36:25.768Z,21.21
2017-07-28T08:38:53.213Z,21.27
2017-07-28T08:41:20.586Z,21.43
2017-07-28T08:43:48.029Z,21.45
2017-07-28T08:46:15.439Z,21.31
2017-07-28T08:48:42.863Z,21.41
2017-07-28T08:51:10.271Z,21.56
2017-07-28T08:53:37.659Z,21.65
2017-07-28T08:56:05.077Z,21.72
2017-07-28T08:58:32.468Z,21.77
2017-07-28T09:00:59.915Z,21.99
2017-07-28T09:03:27.310Z,22.14
2017-07-28T09:05:54.902Z,22.09
2017-07-28T09:08:22.279Z,22.14
2017-07-28T09:10:49.849Z,22.18
2017-07-28T09:15:51.778Z,22.42
2017-07-28T09:18:19.171Z,22.40
2017-07-28T09:20:46.572Z,22.46
2017-07-28T09:23:14.493Z,22.40
2017-07-28T09:25:41.951Z,22.32
2017-07-28T09:28:09.349Z,22.24
2017-07-28T09:30:36.975Z,22.17
2017-07-28T09:33:04.367Z,22.09
2017-07-28T09:35:31.770Z,21.82
2017-07-28T09:37:59.199Z,21.78
2017-07-28T09:40:26.802Z,21.75
2017-07-28T09:42:54.187Z,21.82
2017-07-28T09:45:21.592Z,21.75
2017-07-28T09:47:48.987Z,21.81
2017-07-28T09:50:16.386Z,21.61
2017-07-28T09:52:43.811Z,21.71
2017-07-28T09:55:11.222Z,21.79
2017-07-28T09:57:38.614Z,21.89
2017-07-28T10:00:07.628Z,22.06
2017-07-28T10:02:35.026Z,22.22
2017-07-28T10:05:02.420Z,22.20
2017-07-28T10:07:29.821Z,22.34
2017-07-28T10:09:57.205Z,22.49
2017-07-28T10:12:24.611Z,22.41
2017-07-28T10:14:52.103Z,22.43
2017-07-28T10:17:20.775Z,22.49
2017-07-28T10:19:48.146Z,22.61
2017-07-28T10:22:15.547Z,22.64
2017-07-28T10:24:42.995Z,22.77
2017-07-28T10:27:10.394Z,22.72
2017-07-28T10:29:38.055Z,22.75
2017-07-28T10:32:05.459Z,22.81
2017-07-28T10:34:32.851Z,22.86
2017-07-28T10:37:00.275Z,22.85
2017-07-28T10:39:27.675Z,22.77
2017-07-28T10:41:55.062Z,22.72
2017-07-28T10:44:22.463Z,22.78
2017-07-28T10:46:49.855Z,22.84
2017-07-28T10:49:17.282Z,22.83
2017-07-28T10:51:44.659Z,22.85
2017-07-28T10:54:12.059Z,22.78
2017-07-28T10:56:39.457Z,22.88
2017-07-28T10:59:06.848Z,22.85
2017-07-28T11:01:34.246Z,22.85
2017-07-28T11:04:01.645Z,22.90
2017-07-28T11:06:29.038Z,22.90
2017-07-28T11:08:56.428Z,22.88
2017-07-28T11:11:23.814Z,22.98
2017-07-28T11:13:51.207Z,23.04
2017-07-28T11:16:18.607Z,23.14
2017-07-28T11:18:46.092Z,23.11
2017-07-28T11:21:13.490Z,22.99
2017-07-28T11:23:40.871Z,22.94
2017-07-28T11:26:09.063Z,22.77
2017-07-28T11:28:36.455Z,22.84
2017-07-28T11:31:03.848Z,22.97
2017-07-28T11:33:31.243Z,22.95
2017-07-28T11:35:58.635Z,23.07
2017-07-28T11:38:26.028Z,23.21
2017-07-28T11:40:53.420Z,23.21
2017-07-28T11:43:20.815Z,23.29
2017-07-28T11:45:48.219Z,23.35
2017-07-28T11:48:15.678Z,23.39
2017-07-28T11:50:43.114Z,23.17
2017-07-28T11:53:10.511Z,23.15
2017-07-28T11:55:37.910Z,23.15
2017-07-28T11:58:05.295Z,23.24
2017-07-28T12:00:32.682Z,23.31
2017-07-28T12:03:00.085Z,23.34
2017-07-28T12:05:27.480Z,23.36
2017-07-28T12:07:54.877Z,23.48
2017-07-28T12:10:22.263Z,23.51
2017-07-28T12:12:49.659Z,23.65
2017-07-28T12:15:17.049Z,23.80
2017-07-28T12:17:44.435Z,23.78
2017-07-28T12:20:11.834Z,23.80
2017-07-28T12:22:39.230Z,23.88
2017-07-28T12:25:06.606Z,23.96
2017-07-28T12:27:34.023Z,24.07
2017-07-28T12:30:01.406Z,24.10
2017-07-28T12:32:28.799Z,24.11
2017-07-28T12:34:56.200Z,24.08
2017-07-28T12:37:23.583Z,24.20
2017-07-28T12:39:50.975Z,24.27
2017-07-28T12:42:18.360Z,24.37
2017-07-28T12:44:45.754Z,24.34
2017-07-28T12:47:13.139Z,24.12
2017-07-28T12:49:40.546Z,24.18
2017-07-28T12:52:07.949Z,24.21
2017-07-28T12:54:35.347Z,24.36
2017-07-28T12:57:02.754Z,24.44
2017-07-28T12:59:30.159Z,24.38
2017-07-28T13:01:57.552Z,24.35
2017-07-28T13:04:24.947Z,24.44
2017-07-28T13:06:52.331Z,24.43
2017-07-28T13:09:19.727Z,24.30
2017-07-28T13:11:47.111Z,24.16
2017-07-28T13:14:14.506Z,24.04
2017-07-28T13:16:41.891Z,24.02
2017-07-28T13:19:09.311Z,23.70
2017-07-28T13:21:36.711Z,23.19
2017-07-28T13:24:04.106Z,22.06
2017-07-28T13:26:31.495Z,21.41
2017-07-28T13:28:58.891Z,21.01
2017-07-28T13:31:26.292Z,20.83
2017-07-28T13:33:53.695Z,20.59
2017-07-28T13:36:21.090Z,20.45
2017-07-28T13:38:48.489Z,20.61
2017-07-28T13:41:15.887Z,20.50
2017-07-28T13:43:43.303Z,20.40
2017-07-28T13:46:29.411Z,20.36
2017-07-28T13:48:56.827Z,20.40
2017-07-28T13:51:24.219Z,20.43
2017-07-28T13:53:52.856Z,20.42
2017-07-28T13:56:20.230Z,20.65
2017-07-28T13:58:47.631Z,20.92
2017-07-28T14:01:15.031Z,20.96
2017-07-28T14:03:42.419Z,21.03
2017-07-28T14:06:09.820Z,21.21
2017-07-28T14:08:37.211Z,21.29
2017-07-28T14:11:04.611Z,21.41
2017-07-28T14:13:32.006Z,21.34
2017-07-28T14:18:49.870Z,21.11
2017-07-28T14:21:17.269Z,21.01
2017-07-28T14:23:44.654Z,20.49
2017-07-28T14:26:12.048Z,20.39
2017-07-28T14:28:39.454Z,20.34
2017-07-28T14:31:07.002Z,20.31
2017-07-28T14:33:34.381Z,19.93
2017-07-28T14:36:01.771Z,19.91
2017-07-28T14:38:29.197Z,19.86
2017-07-28T14:40:56.561Z,19.96
2017-07-28T14:43:23.982Z,19.96
2017-07-28T14:45:54.698Z,19.97
2017-07-28T14:48:22.087Z,20.15
2017-07-28T14:50:50.724Z,20.28
2017-07-28T14:53:18.111Z,20.53
2017-07-28T14:55:45.512Z,20.83
2017-07-28T14:58:12.954Z,20.99
2017-07-28T15:00:40.325Z,21.20
2017-07-28T15:03:07.729Z,21.33
2017-07-28T15:05:35.138Z,21.47
2017-07-28T15:08:04.474Z,21.66
2017-07-28T15:10:31.870Z,21.78
2017-07-28T15:12:59.254Z,21.96
2017-07-28T15:15:26.643Z,22.14
2017-07-28T15:17:54.044Z,22.25
2017-07-28T15:20:21.428Z,22.39
2017-07-28T15:22:48.823Z,22.47
2017-07-28T15:25:16.218Z,22.58
2017-07-28T15:27:43.639Z,22.61
2017-07-28T15:30:11.047Z,22.52
2017-07-28T15:32:38.452Z,22.65
2017-07-28T15:35:05.834Z,22.63
2017-07-28T15:37:33.243Z,22.69
2017-07-28T15:40:00.631Z,22.75
2017-07-28T15:42:28.042Z,22.82
2017-07-28T15:44:55.444Z,22.91
2017-07-28T15:47:22.843Z,22.99
2017-07-28T15:49:50.235Z,23.06
2017-07-28T15:52:17.626Z,23.15
2017-07-28T15:54:45.018Z,23.17
2017-07-28T15:57:12.409Z,23.27
2017-07-28T15:59:39.806Z,23.39
2017-07-28T16:02:07.195Z,23.53
2017-07-28T16:04:34.591Z,23.48
2017-07-28T16:07:01.994Z,23.52
2017-07-28T16:09:29.370Z,23.60
2017-07-28T16:11:56.758Z,23.55
2017-07-28T16:14:24.166Z,23.63
2017-07-28T16:16:51.563Z,23.66
2017-07-28T16:19:18.958Z,23.60
2017-07-28T16:21:46.354Z,23.53
2017-07-28T16:24:13.746Z,23.53
2017-07-28T16:26:41.143Z,23.49
2017-07-28T16:29:08.824Z,23.43
2017-07-28T16:31:36.203Z,23.37
2017-07-28T16:34:03.700Z,23.33
2017-07-28T16:36:31.091Z,23.23
2017-07-28T16:38:58.484Z,23.20
2017-07-28T16:41:25.887Z,23.21
2017-07-28T16:43:53.303Z,23.11
2017-07-28T16:46:20.698Z,22.98
2017-07-28T16:48:48.097Z,23.06
2017-07-28T16:51:15.555Z,23.11
2017-07-28T16:53:42.932Z,23.08
2017-07-28T16:56:10.339Z,23.16
2017-07-28T16:58:37.741Z,23.15
2017-07-28T17:01:05.347Z,23.19
2017-07-28T17:03:32.739Z,23.28
2017-07-28T17:06:00.162Z,23.31
2017-07-28T17:08:27.586Z,23.35
2017-07-28T17:10:54.975Z,23.29
2017-07-28T17:13:22.379Z,23.35
2017-07-28T17:15:49.763Z,23.42
2017-07-28T17:18:17.174Z,23.39
2017-07-28T17:20:44.570Z,23.40
2017-07-28T17:23:11.968Z,23.39
2017-07-28T17:25:39.353Z,23.40
2017-07-28T17:28:06.749Z,23.43
2017-07-28T17:30:34.139Z,23.47
2017-07-28T17:33:04.341Z,23.53
2017-07-28T17:35:31.730Z,23.58
2017-07-28T17:37:59.135Z,23.59
2017-07-28T17:40:26.540Z,23.58
2017-07-28T17:42:53.944Z,23.62
2017-07-28T17:45:21.558Z,23.61
2017-07-28T17:47:48.980Z,23.61
2017-07-28T17:50:16.368Z,23.55
2017-07-28T17:52:43.904Z,23.45
2017-07-28T17:55:11.303Z,23.41
2017-07-28T17:57:38.723Z,23.37
2017-07-28T18:00:06.193Z,23.31
2017-07-28T18:02:33.580Z,23.28
2017-07-28T18:05:00.978Z,23.26
2017-07-28T18:07:28.583Z,23.10
2017-07-28T18:09:55.991Z,23.04
2017-07-28T18:12:23.387Z,23.08
2017-07-28T18:14:50.838Z,23.13
2017-07-28T18:17:18.221Z,23.13
2017-07-28T18:19:45.612Z,23.17
2017-07-28T18:22:13.014Z,23.16
2017-07-28T18:24:40.423Z,23.20
2017-07-28T18:27:07.838Z,23.21
2017-07-28T18:29:35.544Z,23.15
2017-07-28T18:32:03.171Z,23.15
2017-07-28T18:34:30.556Z,23.06
2017-07-28T18:36:57.946Z,23.04
2017-07-28T18:39:25.347Z,23.02
2017-07-28T18:41:52.875Z,23.06
2017-07-28T18:44:20.271Z,23.13
2017-07-28T18:46:47.903Z,23.14
2017-07-28T18:49:15.289Z,23.13
2017-07-28T18:51:42.686Z,23.11
2017-07-28T18:54:10.083Z,23.02
2017-07-28T18:56:37.475Z,22.98
2017-07-28T18:59:04.877Z,22.98
2017-07-28T19:01:32.269Z,23.03
2017-07-28T19:03:59.736Z,22.97
2017-07-28T19:06:27.340Z,22.97
2017-07-28T19:08:54.732Z,23.03
2017-07-28T19:11:22.131Z,23.04
2017-07-28T19:13:49.524Z,23.01
2017-07-28T19:16:16.915Z,23.03
2017-07-28T19:18:44.320Z,23.00
2017-07-28T19:21:11.716Z,23.03
2017-07-28T19:23:39.108Z,23.07
2017-07-28T19:26:06.499Z,23.10
2017-07-28T19:28:33.890Z,23.06
2017-07-28T19:31:01.290Z,23.00
2017-07-28T19:33:28.678Z,22.85
2017-07-28T19:35:56.082Z,22.84
2017-07-28T19:38:23.473Z,22.82
2017-07-28T19:40:50.886Z,22.72
2017-07-28T19:43:18.270Z,22.67
2017-07-28T19:45:45.690Z,22.67
2017-07-28T19:48:13.105Z,22.59
2017-07-28T19:50:40.495Z,22.59
2017-07-28T19:53:07.892Z,22.66
2017-07-28T19:55:35.308Z,22.56
2017-07-28T19:58:02.695Z,22.54
2017-07-28T20:00:30.103Z,22.46
2017-07-28T20:02:57.588Z,22.43
2017-07-28T20:05:24.988Z,22.38
2017-07-28T20:07:52.522Z,22.34
2017-07-28T20:10:19.924Z,22.40
2017-07-28T20:12:47.323Z,22.46
2017-07-28T20:15:14.733Z,22.35
2017-07-28T20:17:42.143Z,22.21
2017-07-28T20:20:09.544Z,21.92
2017-07-28T20:22:36.949Z,21.89
2017-07-28T20:25:04.352Z,21.73
2017-07-28T20:27:31.756Z,21.80
2017-07-28T20:29:59.153Z,21.55
2017-07-28T20:32:26.552Z,21.46
2017-07-28T20:34:53.959Z,21.33
2017-07-28T20:37:21.377Z,21.15
2017-07-28T20:39:48.767Z,21.04
2017-07-28T20:42:16.166Z,21.17
2017-07-28T20:44:43.563Z,21.14
2017-07-28T20:47:10.965Z,21.16
2017-07-28T20:49:38.360Z,21.19
2017-07-28T20:52:05.774Z,21.13
2017-07-28T20:54:33.210Z,21.10
2017-07-28T20:57:00.610Z,21.13
2017-07-28T20:59:28.669Z,21.14
2017-07-28T21:01:56.063Z,21.08
2017-07-28T21:04:23.485Z,21.21
2017-07-28T21:06:50.920Z,21.19
2017-07-28T21:09:18.311Z,21.26
2017-07-28T21:11:45.716Z,21.16
2017-07-28T21:14:18.961Z,21.16
2017-07-28T21:16:46.359Z,21.20
2017-07-28T21:19:13.755Z,21.31
2017-07-28T21:21:41.359Z,21.35
2017-07-28T21:24:09.030Z,21.39
2017-07-28T21:26:36.441Z,21.47
2017-07-28T21:29:03.840Z,21.50
2017-07-28T21:31:31.247Z,21.53
2017-07-28T21:33:58.628Z,21.63
2017-07-28T21:36:26.022Z,21.67
2017-07-28T21:38:53.634Z,21.66
2017-07-28T21:41:21.032Z,21.71
2017-07-28T21:43:48.423Z,21.60
2017-07-28T21:46:15.820Z,21.64
2017-07-28T21:48:43.220Z,21.51
2017-07-28T21:51:10.610Z,21.53
2017-07-28T21:53:38.007Z,21.57
2017-07-28T21:56:05.407Z,21.58
2017-07-28T21:58:33.027Z,21.60
2017-07-28T22:01:00.423Z,21.52
2017-07-28T22:03:27.824Z,21.53
2017-07-28T22:05:55.246Z,21.54
2017-07-28T22:08:22.655Z,21.52
2017-07-28T22:10:50.047Z,21.50
2017-07-28T22:13:17.468Z,21.52
2017-07-28T22:15:45.118Z,21.47
2017-07-28T22:18:12.500Z,21.53
2017-07-28T22:20:39.898Z,21.44
2017-07-28T22:23:07.295Z,21.46
2017-07-28T22:25:34.692Z,21.43
2017-07-28T22:28:02.271Z,21.41
2017-07-28T22:30:29.651Z,21.33
2017-07-28T22:32:57.052Z,21.27
2017-07-28T22:35:24.447Z,21.27
2017-07-28T22:37:51.843Z,21.32
2017-07-28T22:40:19.236Z,21.37
2017-07-28T22:42:46.660Z,21.39
2017-07-28T22:45:14.056Z,21.43
2017-07-28T22:47:41.676Z,21.32
2017-07-28T22:50:09.080Z,21.32
2017-07-28T22:52:36.476Z,21.35
2017-07-28T22:55:03.875Z,21.21
2017-07-28T22:57:31.268Z,21.23
2017-07-28T22:59:58.668Z,21.14
2017-07-28T23:02:26.068Z,21.13
2017-07-28T23:04:53.474Z,21.09
2017-07-28T23:07:20.862Z,20.95
2017-07-28T23:09:48.258Z,20.95
2017-07-28T23:12:15.658Z,20.88
2017-07-28T23:14:43.276Z,21.04
2017-07-28T23:17:10.746Z,21.04
2017-07-28T23:19:38.152Z,21.03
2017-07-28T23:22:05.545Z,21.03
2017-07-28T23:24:32.951Z,20.75
2017-07-28T23:27:00.347Z,20.85
2017-07-28T23:29:27.742Z,20.91
2017-07-28T23:31:55.153Z,20.71
2017-07-28T23:34:22.786Z,20.81
2017-07-28T23:36:50.175Z,20.75
2017-07-28T23:39:17.580Z,20.78
2017-07-28T23:41:44.970Z,20.64
2017-07-28T23:44:12.359Z,20.48
2017-07-28T23:46:39.764Z,20.47
2017-07-28T23:49:07.150Z,20.42
2017-07-28T23:51:34.551Z,20.60
2017-07-28T23:54:02.167Z,20.68
2017-07-28T23:56:29.573Z,20.80
2017-07-28T23:58:56.971Z,20.77
